Time;durP1;ratioP1;P1;durP2;ratioP2;P2;SDS_P1;SDS_P2;PMS_P1;PMS_P2;Temp;Humidity;BMP_temperature;BMP_pressure;BME280_temperature;BME280_humidity;BME280_pressure;Samples;Min_cycle;Max_cycle;Signal;HPM_P1;HPM_P2
2023/05/24 00:00:42;;;;;;;9.60;6.60;;;;;;;16.35;65.41;99135.20;107282;1260;60313;-37
2023/05/24 00:03:09;;;;;;;8.20;6.40;;;;;;;16.31;65.81;99143.45;107271;1257;60342;-37
2023/05/24 00:05:39;;;;;;;13.90;6.70;;;;;;;16.29;65.94;99144.78;107231;1257;74255;-37
2023/05/24 00:08:07;;;;;;;9.10;6.00;;;;;;;16.27;65.69;99143.69;107250;1257;66334;-37
2023/05/24 00:10:34;;;;;;;9.10;5.40;;;;;;;16.23;65.90;99143.66;107210;1257;73023;-37
2023/05/24 00:13:01;;;;;;;11.60;5.70;;;;;;;16.10;65.68;99142.10;107282;1257;61654;-37
2023/05/24 00:15:29;;;;;;;8.20;6.10;;;;;;;15.94;65.70;99138.77;107233;1257;60291;-37
2023/05/24 00:17:56;;;;;;;11.50;6.20;;;;;;;15.71;65.78;99139.22;107287;1260;73939;-38
2023/05/24 00:20:23;;;;;;;9.30;6.40;;;;;;;15.58;66.08;99136.95;107350;1257;66367;-37
2023/05/24 00:22:50;;;;;;;9.70;6.60;;;;;;;15.53;66.20;99139.79;107213;1257;72419;-37
2023/05/24 00:25:17;;;;;;;13.20;6.90;;;;;;;15.52;66.14;99130.51;107153;1257;60440;-38
2023/05/24 00:27:45;;;;;;;12.60;6.80;;;;;;;15.50;66.24;99133.61;107122;1257;60443;-37
2023/05/24 00:30:12;;;;;;;14.40;6.60;;;;;;;15.46;66.39;99135.73;107138;1257;73633;-37
2023/05/24 00:32:41;;;;;;;10.60;6.80;;;;;;;15.40;66.45;99136.91;107211;1257;68053;-37
2023/05/24 00:35:08;;;;;;;10.80;5.50;;;;;;;15.40;66.57;99143.33;107215;1257;71690;-37
2023/05/24 00:37:36;;;;;;;11.50;6.50;;;;;;;15.41;66.61;99144.02;107182;1256;60158;-37
2023/05/24 00:40:04;;;;;;;10.70;6.90;;;;;;;15.38;66.76;99146.52;107151;1257;60290;-37
2023/05/24 00:42:31;;;;;;;13.20;6.80;;;;;;;15.33;67.38;99146.08;107164;1257;73760;-37
2023/05/24 00:44:58;;;;;;;12.00;7.40;;;;;;;15.23;67.84;99145.27;107287;1257;67987;-37
2023/05/24 00:47:25;;;;;;;16.00;7.80;;;;;;;15.08;67.76;99146.16;107234;1257;72078;-37
2023/05/24 00:49:52;;;;;;;12.70;6.90;;;;;;;14.91;67.78;99151.42;107579;1253;60159;-37
2023/05/24 00:52:19;;;;;;;10.90;5.90;;;;;;;14.77;67.46;99148.64;107639;1254;60423;-37
2023/05/24 00:54:46;;;;;;;11.70;7.00;;;;;;;14.67;67.26;99148.03;107641;1254;74258;-37
2023/05/24 00:57:13;;;;;;;15.80;7.50;;;;;;;14.65;67.39;99149.13;107593;1254;67578;-37
2023/05/24 00:59:40;;;;;;;15.10;7.70;;;;;;;14.66;67.57;99145.45;107571;1253;73350;-37
2023/05/24 01:02:07;;;;;;;13.20;7.50;;;;;;;14.66;67.72;99144.67;107582;1253;60354;-37
2023/05/24 01:04:36;;;;;;;16.30;7.80;;;;;;;14.65;67.75;99144.61;107620;1253;60441;-37
2023/05/24 01:07:36;;;;;;;11.90;8.00;;;;;;;14.65;67.89;99145.15;107709;1253;73936;-37
2023/05/24 01:10:07;;;;;;;13.80;7.40;;;;;;;14.66;67.78;99148.10;107621;1253;67882;-37
2023/05/24 01:12:46;;;;;;;9.50;6.80;;;;;;;14.71;67.64;99152.08;107583;1253;72656;-37
2023/05/24 01:15:21;;;;;;;10.80;7.50;;;;;;;14.77;67.53;99149.11;107495;1257;60487;-37
2023/05/24 01:18:00;;;;;;;11.30;6.90;;;;;;;14.79;67.32;99156.59;107607;1257;61059;-37
2023/05/24 01:20:32;;;;;;;15.10;7.50;;;;;;;14.80;67.50;99158.15;107580;1254;73707;-37
2023/05/24 01:23:15;;;;;;;17.80;7.70;;;;;;;14.81;67.52;99158.61;107618;1253;67529;-37
2023/05/24 01:26:02;;;;;;;14.30;8.10;;;;;;;14.83;67.58;99163.45;107577;1257;70183;-37
2023/05/24 01:28:30;;;;;;;10.10;7.40;;;;;;;14.82;67.83;99163.61;107501;1253;60682;-37
2023/05/24 01:30:57;;;;;;;9.00;6.40;;;;;;;14.83;67.91;99166.03;107640;1253;60518;-37
2023/05/24 01:33:24;;;;;;;11.10;6.40;;;;;;;14.89;67.52;99166.71;107489;1258;73696;-38
2023/05/24 01:35:51;;;;;;;9.80;7.30;;;;;;;14.90;67.20;99164.39;107538;1254;67718;-37
2023/05/24 01:38:18;;;;;;;10.90;7.10;;;;;;;14.90;67.09;99167.88;107482;1259;72547;-37
2023/05/24 01:40:46;;;;;;;13.40;7.70;;;;;;;14.93;67.12;99169.05;107575;1254;60481;-37
2023/05/24 01:43:17;;;;;;;12.20;7.60;;;;;;;14.95;67.12;99163.20;107475;1254;60344;-37
2023/05/24 01:45:59;;;;;;;11.70;7.90;;;;;;;14.94;67.03;99162.73;107532;1253;71492;-37
2023/05/24 01:48:26;;;;;;;12.30;8.10;;;;;;;14.93;66.97;99164.83;107416;1254;68364;-37
2023/05/24 01:50:57;;;;;;;17.50;7.30;;;;;;;14.88;67.02;99158.91;107574;1253;71251;-37
2023/05/24 01:53:26;;;;;;;12.80;7.00;;;;;;;14.90;66.96;99159.61;107573;1254;60358;-37
2023/05/24 01:55:55;;;;;;;11.50;7.10;;;;;;;14.94;66.78;99161.80;107610;1253;60383;-37
2023/05/24 01:58:22;;;;;;;13.50;7.40;;;;;;;14.93;66.56;99159.76;107483;1254;73795;-37
2023/05/24 02:00:50;;;;;;;10.10;7.10;;;;;;;14.91;66.58;99161.25;107301;1254;67677;-38
2023/05/24 02:03:17;;;;;;;12.40;7.50;;;;;;;14.86;66.96;99158.06;107576;1254;73148;-37
2023/05/24 02:05:45;;;;;;;12.60;7.50;;;;;;;14.72;68.19;99160.42;107498;1256;60090;-37
2023/05/24 02:08:12;;;;;;;8.90;7.30;;;;;;;14.60;69.05;99163.71;107608;1253;60488;-37
2023/05/24 02:10:39;;;;;;;11.00;6.60;;;;;;;14.63;69.23;99164.80;107557;1254;74414;-37
2023/05/24 02:13:07;;;;;;;10.10;7.00;;;;;;;14.65;68.89;99160.83;107611;1254;66655;-37
2023/05/24 02:15:34;;;;;;;12.40;8.00;;;;;;;14.59;68.82;99159.58;107513;1253;73071;-37
2023/05/24 02:18:01;;;;;;;11.50;7.40;;;;;;;14.55;68.88;99171.04;107712;1253;60417;-38
2023/05/24 02:20:35;;;;;;;8.60;7.00;;;;;;;14.56;68.99;99171.03;107622;1256;60332;-38
2023/05/24 02:23:03;;;;;;;12.80;7.70;;;;;;;14.58;68.91;99170.10;107605;1253;73872;-38
2023/05/24 02:25:30;;;;;;;12.70;7.80;;;;;;;14.59;69.06;99172.35;107565;1254;66715;-38
2023/05/24 02:27:58;;;;;;;10.70;6.90;;;;;;;14.60;69.00;99173.38;107645;1254;72731;-38
2023/05/24 02:30:25;;;;;;;12.60;6.80;;;;;;;14.63;68.82;99172.05;107666;1253;61729;-38
2023/05/24 02:32:53;;;;;;;10.40;6.80;;;;;;;14.69;68.85;99171.89;107577;1254;60338;-39
2023/05/24 02:35:20;;;;;;;10.70;7.30;;;;;;;14.71;68.73;99169.23;107575;1257;73139;-38
2023/05/24 02:37:47;;;;;;;10.70;7.30;;;;;;;14.70;68.86;99167.52;107548;1253;67727;-38
2023/05/24 02:40:14;;;;;;;11.20;8.00;;;;;;;14.66;68.65;99170.48;107578;1253;73146;-38
2023/05/24 02:42:41;;;;;;;11.10;7.10;;;;;;;14.65;68.52;99170.80;107505;1254;60419;-38
2023/05/24 02:45:09;;;;;;;13.60;7.80;;;;;;;14.66;68.41;99166.73;107576;1253;60440;-38
2023/05/24 02:47:36;;;;;;;11.20;6.70;;;;;;;14.68;68.37;99164.55;107593;1253;73669;-38
2023/05/24 02:50:05;;;;;;;12.90;7.40;;;;;;;14.72;68.35;99166.27;107528;1254;67033;-38
2023/05/24 02:52:32;;;;;;;11.80;8.10;;;;;;;14.78;68.26;99167.83;107334;1256;72510;-38
2023/05/24 02:54:59;;;;;;;11.90;7.30;;;;;;;14.84;68.07;99169.53;107383;1254;60460;-38
2023/05/24 02:57:27;;;;;;;13.00;8.00;;;;;;;14.88;68.15;99170.23;107536;1253;59754;-38
2023/05/24 02:59:54;;;;;;;13.30;8.70;;;;;;;14.93;68.15;99170.23;107536;1254;74249;-38
2023/05/24 03:02:21;;;;;;;11.50;7.90;;;;;;;14.97;68.05;99174.81;107536;1254;67724;-38
2023/05/24 03:04:49;;;;;;;12.20;8.40;;;;;;;14.99;68.07;99180.58;107536;1255;72498;-38
2023/05/24 03:07:16;;;;;;;14.20;7.30;;;;;;;15.01;68.06;99179.17;107425;1254;60428;-38
2023/05/24 03:09:43;;;;;;;11.20;7.00;;;;;;;15.05;67.81;99179.55;107480;1254;60495;-38
2023/05/24 03:12:11;;;;;;;10.40;7.10;;;;;;;15.05;67.57;99178.94;107562;1253;74284;-39
2023/05/24 03:14:38;;;;;;;10.30;7.20;;;;;;;15.03;67.53;99181.50;107586;1254;66650;-38
2023/05/24 03:17:05;;;;;;;14.60;7.90;;;;;;;15.06;67.73;99184.86;107489;1254;73555;-38
2023/05/24 03:19:33;;;;;;;9.90;7.90;;;;;;;15.12;67.87;99185.33;107533;1253;60378;-39
2023/05/24 03:22:00;;;;;;;11.20;7.50;;;;;;;15.17;67.95;99187.88;107584;1253;59373;-39
2023/05/24 03:24:27;;;;;;;10.40;7.10;;;;;;;15.21;68.08;99185.76;107545;1253;74510;-39
2023/05/24 03:26:54;;;;;;;9.80;6.40;;;;;;;15.25;68.23;99186.77;107496;1259;68543;-40
2023/05/24 03:29:21;;;;;;;8.70;6.30;;;;;;;15.34;68.27;99186.17;107558;1254;73297;-39
2023/05/24 03:31:50;;;;;;;10.40;6.40;;;;;;;15.45;68.35;99191.30;107493;1253;60385;-39
2023/05/24 03:34:17;;;;;;;8.90;6.40;;;;;;;15.55;68.54;99187.86;107567;1254;60164;-39
2023/05/24 03:36:44;;;;;;;8.70;5.50;;;;;;;15.63;68.67;99190.56;107520;1258;73923;-39
2023/05/24 03:39:11;;;;;;;9.30;5.20;;;;;;;15.70;68.90;99193.50;107485;1254;68031;-39
2023/05/24 03:41:53;;;;;;;11.40;5.70;;;;;;;15.80;69.01;99196.96;107595;1254;73146;-39
2023/05/24 03:44:20;;;;;;;6.50;4.60;;;;;;;15.86;68.97;99201.23;107573;1254;61650;-39
2023/05/24 03:46:47;;;;;;;7.30;4.30;;;;;;;16.00;68.89;99197.95;107585;1253;60514;-39
2023/05/24 03:49:14;;;;;;;9.50;4.60;;;;;;;16.18;68.56;99198.48;107594;1253;73695;-38
2023/05/24 03:51:41;;;;;;;7.70;5.10;;;;;;;16.30;68.14;99201.20;107600;1254;66493;-39
2023/05/24 03:54:08;;;;;;;9.20;5.90;;;;;;;16.40;67.96;99199.66;107594;1254;72550;-38
2023/05/24 03:56:36;;;;;;;6.80;5.10;;;;;;;16.48;67.79;99200.69;107573;1253;60460;-39
2023/05/24 03:59:03;;;;;;;7.60;5.50;;;;;;;16.57;67.37;99201.11;107585;1257;60425;-38
2023/05/24 04:01:32;;;;;;;9.10;5.10;;;;;;;16.65;67.37;99201.52;107611;1257;74384;-38
2023/05/24 04:04:02;;;;;;;9.00;4.60;;;;;;;16.77;67.25;99200.33;107524;1254;67801;-38
2023/05/24 04:06:29;;;;;;;12.10;4.80;;;;;;;16.94;67.12;99206.59;107624;1254;72530;-38
2023/05/24 04:08:58;;;;;;;8.90;5.50;;;;;;;17.06;66.72;99203.74;107558;1253;60322;-39
2023/05/24 04:11:27;;;;;;;7.30;4.90;;;;;;;17.14;66.15;99203.02;107416;1253;60420;-38
2023/05/24 04:13:56;;;;;;;6.20;4.30;;;;;;;17.21;65.86;99201.23;107540;1254;74348;-38
2023/05/24 04:16:23;;;;;;;7.10;5.30;;;;;;;17.30;66.02;99199.80;107564;1254;68020;-38
2023/05/24 04:18:50;;;;;;;7.90;4.60;;;;;;;17.39;66.17;99198.61;107589;1257;71557;-38
2023/05/24 04:21:18;;;;;;;11.90;4.70;;;;;;;17.46;65.89;99201.66;107630;1254;61985;-38
2023/05/24 04:23:45;;;;;;;6.00;4.20;;;;;;;17.56;65.48;99206.34;107520;1253;60323;-38
2023/05/24 04:26:13;;;;;;;7.00;4.60;;;;;;;17.68;65.20;99205.03;107500;1254;74247;-38
2023/05/24 04:28:40;;;;;;;7.30;4.80;;;;;;;17.79;65.29;99206.23;107581;1254;67587;-38
2023/05/24 04:31:08;;;;;;;8.90;4.80;;;;;;;17.90;65.10;99204.30;107603;1254;72999;-38
2023/05/24 04:33:38;;;;;;;8.80;4.70;;;;;;;18.00;64.98;99202.11;107602;1254;60632;-38
2023/05/24 04:36:07;;;;;;;10.50;4.70;;;;;;;18.10;64.97;99202.44;107606;1254;60376;-38
2023/05/24 04:38:35;;;;;;;9.00;5.30;;;;;;;18.19;64.40;99195.34;107574;1254;72738;-38
2023/05/24 04:41:02;;;;;;;6.40;4.90;;;;;;;18.26;63.93;99193.10;107659;1254;67724;-38
2023/05/24 04:43:29;;;;;;;8.20;4.90;;;;;;;18.34;63.55;99193.71;107580;1257;72436;-38
2023/05/24 04:45:56;;;;;;;8.20;5.30;;;;;;;18.41;63.72;99196.73;107557;1257;60434;-38
2023/05/24 04:48:24;;;;;;;7.50;4.60;;;;;;;18.47;63.72;99198.13;107633;1254;60309;-38
2023/05/24 04:50:52;;;;;;;8.70;4.30;;;;;;;18.58;62.95;99198.60;107556;1254;74031;-38
2023/05/24 04:53:20;;;;;;;5.70;4.60;;;;;;;18.69;62.67;99199.52;107655;1254;66402;-38
2023/05/24 04:55:47;;;;;;;6.80;4.50;;;;;;;18.80;62.67;99201.06;107567;1257;70775;-38
2023/05/24 04:58:15;;;;;;;7.70;4.70;;;;;;;18.91;62.62;99199.23;107614;1254;60550;-38
2023/05/24 05:00:42;;;;;;;10.20;4.60;;;;;;;19.00;62.17;99201.34;107601;1254;59730;-38
2023/05/24 05:03:09;;;;;;;7.00;4.30;;;;;;;19.12;62.08;99200.13;107590;1257;73749;-38
2023/05/24 05:05:37;;;;;;;7.40;4.30;;;;;;;19.22;61.68;99203.55;107576;1254;66748;-38
2023/05/24 05:08:04;;;;;;;7.60;3.80;;;;;;;19.30;60.88;99206.07;107625;1254;72696;-38
2023/05/24 05:10:31;;;;;;;5.90;3.90;;;;;;;19.39;60.60;99204.71;107609;1254;60160;-38
2023/05/24 05:12:58;;;;;;;5.30;3.50;;;;;;;19.48;60.34;99211.86;107587;1253;60319;-38
2023/05/24 05:15:25;;;;;;;9.10;3.70;;;;;;;19.59;60.21;99211.35;107569;1254;73891;-38
2023/05/24 05:17:52;;;;;;;4.70;3.30;;;;;;;19.67;58.55;99214.65;107583;1254;67593;-38
2023/05/24 05:20:20;;;;;;;7.00;3.50;;;;;;;19.73;57.91;99212.85;107538;1254;73253;-38
2023/05/24 05:22:47;;;;;;;7.90;3.60;;;;;;;19.78;57.70;99212.60;107581;1254;60429;-38
2023/05/24 05:25:16;;;;;;;4.70;3.50;;;;;;;19.85;57.12;99211.67;107578;1253;60889;-38
2023/05/24 05:27:43;;;;;;;8.10;3.70;;;;;;;19.92;57.29;99210.27;107596;1253;73814;-38
2023/05/24 05:30:12;;;;;;;6.60;3.70;;;;;;;20.00;57.67;99213.31;107621;1254;66720;-38
2023/05/24 05:32:39;;;;;;;4.80;2.90;;;;;;;20.09;56.43;99216.67;107591;1254;72665;-38
2023/05/24 05:35:06;;;;;;;6.50;3.20;;;;;;;20.15;55.52;99220.14;107585;1253;60470;-38
2023/05/24 05:37:34;;;;;;;5.90;3.30;;;;;;;20.21;55.09;99221.90;107619;1254;59258;-38
2023/05/24 05:40:02;;;;;;;5.30;3.30;;;;;;;20.27;54.79;99224.21;107576;1254;74318;-38
2023/05/24 05:42:29;;;;;;;6.60;3.40;;;;;;;20.36;55.03;99226.93;107515;1254;68028;-38
2023/05/24 05:44:56;;;;;;;5.70;3.40;;;;;;;20.45;54.86;99234.29;107520;1254;72655;-38
2023/05/24 05:47:23;;;;;;;8.80;3.40;;;;;;;20.53;54.51;99236.77;107542;1254;60420;-38
2023/05/24 05:49:51;;;;;;;8.60;3.60;;;;;;;20.61;54.22;99234.23;107549;1253;60801;-38
2023/05/24 05:52:17;;;;;;;5.80;3.80;;;;;;;20.72;54.06;99240.88;107604;1253;74325;-38
2023/05/24 05:54:44;;;;;;;6.50;3.40;;;;;;;20.84;54.33;99239.81;107543;1254;67903;-38
2023/05/24 05:57:12;;;;;;;5.40;3.50;;;;;;;20.94;53.89;99240.26;107569;1253;73249;-38
2023/05/24 05:59:39;;;;;;;7.10;3.50;;;;;;;21.07;53.87;99237.73;107580;1254;60307;-38
2023/05/24 06:02:06;;;;;;;7.90;3.10;;;;;;;21.18;54.29;99239.11;107433;1254;222717;-38
2023/05/24 06:06:22;;;;;;;5.60;3.70;;;;;;;21.39;53.94;99237.06;104192;1292;601172;-38
2023/05/24 06:08:50;;;;;;;6.60;3.50;;;;;;;21.48;52.81;99235.34;106640;1272;60070;-38
2023/05/24 06:11:18;;;;;;;4.80;3.30;;;;;;;21.57;53.30;99233.35;106620;1271;60162;-38
2023/05/24 06:13:45;;;;;;;6.20;3.50;;;;;;;21.65;52.87;99237.14;106727;1267;72284;-38
2023/05/24 06:16:13;;;;;;;6.50;3.50;;;;;;;21.75;52.57;99238.30;106682;1267;67817;-38
2023/05/24 06:18:41;;;;;;;5.10;3.50;;;;;;;21.83;52.33;99236.15;106710;1267;72677;-38
2023/05/24 06:21:20;;;;;;;6.00;3.80;;;;;;;21.92;51.55;99232.04;106623;1269;59339;-38
2023/05/24 06:23:48;;;;;;;4.80;3.40;;;;;;;22.01;50.83;99235.80;106878;1265;60073;-38
2023/05/24 06:26:16;;;;;;;8.10;3.30;;;;;;;22.11;50.83;99235.89;106832;1263;72401;-38
2023/05/24 06:28:44;;;;;;;6.60;3.40;;;;;;;22.17;49.68;99231.47;106876;1264;67956;-38
2023/05/24 06:31:12;;;;;;;4.00;2.80;;;;;;;22.30;49.12;99233.84;106853;1270;72686;-38
2023/05/24 06:33:40;;;;;;;6.50;3.30;;;;;;;22.39;48.81;99233.47;106733;1265;60084;-38
2023/05/24 06:36:15;;;;;;;5.60;3.30;;;;;;;22.49;48.71;99233.06;107010;1261;60140;-38
2023/05/24 06:38:44;;;;;;;6.10;2.90;;;;;;;22.57;47.47;99227.96;107026;1261;73524;-38
2023/05/24 06:41:12;;;;;;;4.10;2.50;;;;;;;22.66;45.79;99234.30;106947;1265;68278;-38
2023/05/24 06:43:40;;;;;;;6.90;3.10;;;;;;;22.69;46.06;99234.50;106884;1260;72769;-38
2023/05/24 06:46:08;;;;;;;5.90;2.60;;;;;;;22.75;46.31;99233.69;106913;1261;59851;-38
2023/05/24 06:48:36;;;;;;;4.40;2.40;;;;;;;22.82;44.76;99228.08;106833;1260;59208;-38
2023/05/24 06:51:04;;;;;;;5.40;2.60;;;;;;;22.89;43.95;99230.46;106890;1260;72864;-37
2023/05/24 06:53:31;;;;;;;5.50;2.70;;;;;;;22.98;44.78;99228.11;107020;1265;67926;-37
2023/05/24 06:55:59;;;;;;;8.30;2.40;;;;;;;23.04;45.82;99226.73;106995;1260;72725;-37
2023/05/24 06:58:27;;;;;;;6.10;2.60;;;;;;;23.12;44.08;99226.23;106984;1261;60667;-37
2023/05/24 07:00:55;;;;;;;6.90;2.60;;;;;;;23.21;43.95;99224.95;107006;1261;60039;-37
2023/05/24 07:03:23;;;;;;;7.40;2.70;;;;;;;23.31;42.71;99228.35;106875;1261;72070;-37
2023/05/24 07:05:51;;;;;;;4.40;2.30;;;;;;;23.37;42.74;99228.67;106937;1261;68107;-37
2023/05/24 07:08:19;;;;;;;5.70;2.50;;;;;;;23.40;42.54;99233.48;106962;1266;72755;-37
2023/05/24 07:10:47;;;;;;;4.60;2.60;;;;;;;23.42;42.42;99234.59;106900;1265;60049;-37
2023/05/24 07:13:15;;;;;;;7.40;3.10;;;;;;;23.46;42.83;99232.33;106921;1262;60492;-37
2023/05/24 07:15:45;;;;;;;5.30;2.30;;;;;;;23.52;42.58;99234.33;107011;1266;71854;-37
2023/05/24 07:18:13;;;;;;;;;;;;;;;23.61;43.34;99233.78;107064;1261;66743;-37
2023/05/24 07:20:41;;;;;;;5.90;2.40;;;;;;;23.66;43.11;99230.75;106995;1266;72707;-38
2023/05/24 07:23:09;;;;;;;4.30;2.40;;;;;;;23.74;42.98;99231.65;107035;1261;60086;-37
2023/05/24 07:25:37;;;;;;;6.10;2.60;;;;;;;23.86;43.23;99231.03;107010;1260;59637;-37
2023/05/24 07:28:05;;;;;;;4.00;2.40;;;;;;;23.95;41.55;99234.96;106993;1266;73141;-38
2023/05/24 07:30:34;;;;;;;5.20;3.00;;;;;;;24.03;40.92;99234.45;107197;1257;67688;-37
2023/05/24 07:33:02;;;;;;;7.70;2.30;;;;;;;24.10;40.64;99235.27;107111;1257;71405;-37
2023/05/24 07:35:31;;;;;;;3.90;2.30;;;;;;;24.16;39.89;99236.41;107058;1257;60109;-37
2023/05/24 07:37:59;;;;;;;7.30;2.30;;;;;;;24.20;39.52;99233.79;107096;1263;60126;-37
2023/05/24 07:40:27;;;;;;;5.90;2.40;;;;;;;24.26;40.88;99232.77;107117;1258;71372;-38
2023/05/24 07:42:55;;;;;;;3.20;2.10;;;;;;;24.33;41.37;99237.16;107200;1262;68252;-37
2023/05/24 07:45:23;;;;;;;7.30;2.30;;;;;;;24.45;40.60;99232.42;107041;1261;72710;-37
2023/05/24 07:47:51;;;;;;;7.30;2.70;;;;;;;24.61;40.67;99235.52;107188;1257;60128;-37
2023/05/24 07:50:22;;;;;;;6.80;2.70;;;;;;;24.76;39.87;99237.36;107181;1258;60038;-38
2023/05/24 07:52:50;;;;;;;6.40;2.30;;;;;;;24.87;40.22;99237.89;107123;1262;71805;-38
2023/05/24 07:55:18;;;;;;;6.10;2.50;;;;;;;24.97;39.49;99236.30;107156;1257;67569;-38
2023/05/24 07:57:46;;;;;;;4.30;2.70;;;;;;;25.09;39.25;99238.16;107005;1263;72725;-38
2023/05/24 08:00:15;;;;;;;3.70;2.40;;;;;;;25.21;38.39;99241.69;107083;1257;59608;-38
2023/05/24 08:02:45;;;;;;;;;;;;;;;25.30;38.01;99239.40;107142;1263;60026;-38
2023/05/24 08:05:13;;;;;;;3.40;2.50;;;;;;;25.33;38.08;99240.30;107059;1262;71855;-38
2023/05/24 08:07:41;;;;;;;7.20;3.00;;;;;;;25.40;38.33;99241.11;107049;1263;67594;-38
2023/05/24 08:10:12;;;;;;;5.60;2.80;;;;;;;25.52;37.85;99239.41;107093;1262;72100;-38
2023/05/24 08:12:41;;;;;;;5.50;2.90;;;;;;;25.64;37.76;99236.98;107064;1257;59554;-37
2023/05/24 08:15:09;;;;;;;8.40;2.80;;;;;;;25.69;37.39;99240.41;107283;1260;59487;-38
2023/05/24 08:17:37;;;;;;;8.60;3.10;;;;;;;25.63;37.98;99241.74;107261;1262;71753;-38
2023/05/24 08:20:08;;;;;;;6.20;2.60;;;;;;;25.48;38.61;99250.51;107272;1258;67770;-38
2023/05/24 08:22:36;;;;;;;6.20;2.80;;;;;;;25.36;38.91;99249.83;107215;1263;72683;-38
2023/05/24 08:25:05;;;;;;;8.90;2.90;;;;;;;25.30;38.77;99251.31;107239;1258;59596;-38
2023/05/24 08:27:33;;;;;;;10.80;3.20;;;;;;;25.29;38.62;99246.16;107125;1258;60420;-38
2023/05/24 08:30:03;;;;;;;6.70;2.90;;;;;;;25.36;39.51;99246.10;107236;1257;71839;-38
2023/05/24 08:32:31;;;;;;;5.80;3.50;;;;;;;25.52;39.22;99243.30;107094;1258;67745;-38
2023/05/24 08:34:59;;;;;;;6.30;3.10;;;;;;;25.69;39.14;99241.21;107199;1257;72747;-38
2023/05/24 08:37:46;;;;;;;7.00;3.50;;;;;;;25.87;39.09;99234.98;107095;1257;59630;-38
2023/05/24 08:40:15;;;;;;;8.80;3.10;;;;;;;26.06;38.21;99235.00;107097;1258;60074;-38
2023/05/24 08:42:43;;;;;;;5.80;3.10;;;;;;;26.20;36.90;99225.23;107087;1257;73077;-38
2023/05/24 08:45:12;;;;;;;6.10;3.10;;;;;;;26.29;36.84;99227.91;107031;1257;68287;-38
2023/05/24 08:47:41;;;;;;;8.10;3.60;;;;;;;26.40;37.62;99224.63;107076;1260;72776;-38
2023/05/24 08:50:09;;;;;;;7.60;3.60;;;;;;;26.54;37.25;99226.50;107272;1257;59608;-38
2023/05/24 08:52:38;;;;;;;5.50;3.50;;;;;;;26.58;37.63;99228.73;107272;1258;59520;-37
2023/05/24 08:55:07;;;;;;;6.60;3.30;;;;;;;26.58;37.40;99231.20;107089;1257;72182;-37
2023/05/24 08:57:38;;;;;;;4.70;3.40;;;;;;;26.47;37.37;99223.26;107332;1263;66303;-37
2023/05/24 09:00:11;;;;;;;7.10;3.30;;;;;;;26.32;37.66;99225.00;107129;1258;71815;-38
2023/05/24 09:02:42;;;;;;;7.30;4.00;;;;;;;26.23;37.46;99224.13;107209;1263;60065;-38
2023/05/24 09:05:11;;;;;;;4.80;3.20;;;;;;;26.17;36.93;99220.36;107239;1257;59580;-38
2023/05/24 09:07:39;;;;;;;5.60;3.30;;;;;;;26.19;37.08;99219.96;107273;1258;73081;-38
2023/05/24 09:10:08;;;;;;;6.40;3.00;;;;;;;26.28;35.97;99221.92;107230;1257;67604;-38
2023/05/24 09:12:36;;;;;;;7.60;3.20;;;;;;;26.34;35.40;99221.16;107113;1257;71052;-38
2023/05/24 09:15:07;;;;;;;5.60;3.50;;;;;;;26.43;35.96;99217.70;107246;1262;60072;-38
2023/05/24 09:17:35;;;;;;;6.20;3.20;;;;;;;26.56;35.31;99224.58;107144;1262;59580;-37
2023/05/24 09:20:09;;;;;;;6.60;2.80;;;;;;;26.61;35.15;99226.53;107218;1258;71839;-38
2023/05/24 09:22:40;;;;;;;7.40;3.10;;;;;;;26.63;35.11;99229.76;107273;1257;66658;-37
2023/05/24 09:25:10;;;;;;;6.80;3.10;;;;;;;26.67;34.94;99233.29;107289;1257;72695;-38
2023/05/24 09:27:38;;;;;;;6.50;3.40;;;;;;;26.77;35.05;99234.16;107325;1256;59596;-38
2023/05/24 09:30:09;;;;;;;6.60;3.10;;;;;;;26.87;33.25;99235.91;107279;1257;59518;-38
2023/05/24 09:32:37;;;;;;;5.30;2.90;;;;;;;26.95;33.06;99236.46;107261;1257;73505;-38
2023/05/24 09:35:09;;;;;;;4.80;2.60;;;;;;;27.05;33.17;99234.20;107260;1257;66633;-38
2023/05/24 09:37:37;;;;;;;5.50;2.90;;;;;;;27.25;33.33;99235.11;107267;1257;71915;-37
2023/05/24 09:40:07;;;;;;;5.50;3.30;;;;;;;27.44;33.03;99233.45;107272;1256;60117;-38
2023/05/24 09:42:36;;;;;;;5.30;3.20;;;;;;;27.62;33.45;99228.30;107080;1257;60044;-38
2023/05/24 09:45:08;;;;;;;10.00;3.30;;;;;;;27.74;32.78;99223.75;107223;1257;71945;-38
2023/05/24 09:47:36;;;;;;;8.10;3.40;;;;;;;27.77;32.89;99220.23;107263;1256;67873;-38
2023/05/24 09:50:06;;;;;;;4.00;2.80;;;;;;;27.69;33.04;99221.34;107310;1257;72746;-38
2023/05/24 09:52:37;;;;;;;6.00;3.00;;;;;;;27.59;33.01;99229.23;107214;1260;59758;-38
2023/05/24 09:55:12;;;;;;;6.00;2.60;;;;;;;27.44;32.72;99228.45;107308;1260;59552;-38
2023/05/24 09:57:40;;;;;;;9.30;3.30;;;;;;;27.27;33.18;99230.67;107297;1258;72855;-38
2023/05/24 10:00:16;;;;;;;4.80;3.40;;;;;;;27.13;33.70;99232.75;107165;1257;67707;-38
2023/05/24 10:02:44;;;;;;;7.40;3.10;;;;;;;26.97;34.61;99231.94;107268;1257;71880;-38
2023/05/24 10:05:20;;;;;;;5.00;2.80;;;;;;;26.77;34.97;99232.15;107246;1257;59608;-38
2023/05/24 10:07:48;;;;;;;6.20;3.00;;;;;;;26.64;35.41;99231.54;107337;1260;59659;-38
2023/05/24 10:10:16;;;;;;;11.20;3.00;;;;;;;26.51;35.33;99230.38;107048;1257;73066;-37
2023/05/24 10:12:45;;;;;;;5.00;3.10;;;;;;;26.37;36.00;99230.63;107033;1258;67976;-37
2023/05/24 10:15:13;;;;;;;;;;;;;;;26.28;36.18;99229.75;107202;1257;72784;-38
2023/05/24 10:17:41;;;;;;;6.40;3.00;;;;;;;26.16;36.45;99229.13;107099;1257;60470;-38
2023/05/24 10:20:11;;;;;;;5.80;3.10;;;;;;;26.09;37.19;99230.27;107183;1257;60434;-38
2023/05/24 10:22:46;;;;;;;7.60;3.00;;;;;;;26.05;37.22;99232.65;107141;1257;72629;-37
2023/05/24 10:25:26;;;;;;;5.10;2.80;;;;;;;26.00;36.97;99231.31;107243;1260;67919;-38
2023/05/24 10:27:59;;;;;;;6.10;3.10;;;;;;;25.94;37.26;99227.02;107231;1257;72723;-38
2023/05/24 10:30:34;;;;;;;6.70;2.70;;;;;;;25.86;37.10;99222.88;107188;1257;60427;-38
2023/05/24 10:33:03;;;;;;;4.40;2.80;;;;;;;25.82;37.47;99227.38;107265;1257;60321;-38
2023/05/24 10:35:32;;;;;;;;;;;;;;;25.96;37.14;99226.16;107050;1263;72987;-37
2023/05/24 10:38:05;;;;;;;5.00;2.30;;;;;;;26.20;37.16;99221.71;107079;1257;67878;-38
2023/05/24 10:40:33;;;;;;;5.70;2.90;;;;;;;26.61;35.90;99216.36;107263;1257;72711;-38
2023/05/24 10:43:05;;;;;;;9.10;2.80;;;;;;;27.04;35.83;99210.13;107226;1257;60481;-38
2023/05/24 10:45:38;;;;;;;5.70;2.60;;;;;;;27.47;33.95;99211.09;107330;1257;60215;-38
2023/05/24 10:48:12;;;;;;;4.90;2.80;;;;;;;27.79;33.92;99208.34;107256;1257;73844;-38
2023/05/24 10:50:41;;;;;;;10.00;3.00;;;;;;;28.23;33.88;99205.34;107240;1258;67642;-38
2023/05/24 10:53:13;;;;;;;5.10;2.10;;;;;;;28.68;33.32;99197.45;107142;1257;72733;-38
2023/05/24 10:55:54;;;;;;;4.90;2.50;;;;;;;29.09;32.33;99192.83;107148;1258;60243;-38
2023/05/24 10:58:29;;;;;;;4.20;2.90;;;;;;;29.50;31.11;99201.38;107288;1257;60427;-38
2023/05/24 11:00:57;;;;;;;6.30;2.80;;;;;;;29.89;30.35;99204.97;107257;1257;74395;-38
2023/05/24 11:03:24;;;;;;;4.60;2.70;;;;;;;30.22;29.98;99204.48;107252;1257;68006;-39
2023/05/24 11:05:53;;;;;;;6.80;2.70;;;;;;;30.30;30.05;99203.13;107051;1258;72718;-39
2023/05/24 11:08:42;;;;;;;5.60;2.80;;;;;;;30.22;29.72;99199.86;107244;1258;60313;-37
2023/05/24 11:11:11;;;;;;;5.90;2.40;;;;;;;30.14;29.96;99202.51;107128;1258;60285;-36
2023/05/24 11:13:42;;;;;;;7.40;2.40;;;;;;;30.00;30.02;99204.05;107238;1257;72646;-37
2023/05/24 11:16:32;;;;;;;5.70;2.50;;;;;;;29.89;30.19;99209.50;107104;1258;67958;-37
2023/05/24 11:19:14;;;;;;;5.40;2.50;;;;;;;29.87;29.67;99204.03;107056;1258;72787;-37
2023/05/24 11:21:50;;;;;;;6.20;2.50;;;;;;;29.78;30.04;99205.98;107188;1257;60460;-37
2023/05/24 11:24:18;;;;;;;4.50;2.60;;;;;;;29.67;29.43;99203.48;107237;1263;60040;-38
2023/05/24 11:26:46;;;;;;;6.80;3.10;;;;;;;29.40;29.80;99207.37;107210;1257;73827;-37
2023/05/24 11:29:20;;;;;;;6.80;3.40;;;;;;;29.04;30.25;99204.27;107182;1257;67898;-37
2023/05/24 11:31:53;;;;;;;6.00;2.90;;;;;;;28.68;31.24;99206.20;107204;1257;73251;-38
2023/05/24 11:34:23;;;;;;;6.60;2.60;;;;;;;28.45;31.10;99201.59;107272;1257;60480;-37